Time;durP1;ratioP1;P1;durP2;ratioP2;P2;SDS_P1;SDS_P2;PMS_P1;PMS_P2;Temp;Humidity;BMP_temperature;BMP_pressure;BME280_temperature;BME280_humidity;BME280_pressure;Samples;Min_cycle;Max_cycle;Signal;HPM_P1;HPM_P2
2022/01/05 00:00:54;;;;;;;1.27;0.60;;;;;;;;;;5020606;28;20045;-78
2022/01/05 00:03:21;;;;;;;1.02;0.40;;;;;;;;;;5020937;28;20046;-79
2022/01/05 00:05:48;;;;;;;1.92;0.50;;;;;;;;;;5022015;28;20097;-78
2022/01/05 00:08:15;;;;;;;1.00;0.43;;;;;;;;;;5021686;28;20049;-78
2022/01/05 00:10:42;;;;;;;1.10;0.40;;;;;;;;;;5021515;28;20137;-77
2022/01/05 00:13:09;;;;;;;0.60;0.40;;;;;;;;;;5040229;28;20069;-78
2022/01/05 00:15:37;;;;;;;0.95;0.40;;;;;;;;;;5051934;28;20049;-75
2022/01/05 00:18:04;;;;;;;0.80;0.40;;;;;;;;;;5043090;28;20053;-77
2022/01/05 00:20:31;;;;;;;0.65;0.45;;;;;;;;;;5040428;28;20103;-77
2022/01/05 00:22:58;;;;;;;0.60;0.30;;;;;;;;;;5042182;28;20128;-76
2022/01/05 00:25:25;;;;;;;0.98;0.55;;;;;;;;;;5045205;28;20056;-77
2022/01/05 00:27:51;;;;;;;0.82;0.47;;;;;;;;;;5027630;28;20054;-79
2022/01/05 00:30:18;;;;;;;1.15;0.60;;;;;;;;;;5021436;28;20072;-77
2022/01/05 00:32:46;;;;;;;2.72;0.70;;;;;;;;;;5022118;28;20042;-77
2022/01/05 00:35:13;;;;;;;2.38;1.10;;;;;;;;;;5021838;28;20049;-76
2022/01/05 00:37:40;;;;;;;1.70;0.90;;;;;;;;;;5020534;28;20054;-76
2022/01/05 00:40:07;;;;;;;2.10;1.00;;;;;;;;;;5026728;28;20050;-77
2022/01/05 00:42:34;;;;;;;2.17;1.00;;;;;;;;;;5025472;28;20046;-77
2022/01/05 00:45:01;;;;;;;2.20;0.90;;;;;;;;;;5019832;28;20050;-77
2022/01/05 00:47:28;;;;;;;2.05;1.05;;;;;;;;;;5021068;28;20084;-77
2022/01/05 00:49:56;;;;;;;2.00;0.90;;;;;;;;;;5019289;28;20086;-76
2022/01/05 00:52:23;;;;;;;2.47;1.08;;;;;;;;;;5017734;28;20069;-76
2022/01/05 00:54:51;;;;;;;2.53;0.90;;;;;;;;;;5020262;28;20054;-77
2022/01/05 00:57:18;;;;;;;2.00;0.82;;;;;;;;;;5018279;28;20073;-77
2022/01/05 00:59:44;;;;;;;2.10;0.88;;;;;;;;;;5018243;28;20088;-78
2022/01/05 01:02:11;;;;;;;1.20;0.80;;;;;;;;;;5017676;28;20652;-78
2022/01/05 01:04:38;;;;;;;1.58;0.68;;;;;;;;;;5020873;28;20046;-77
2022/01/05 01:07:06;;;;;;;1.52;0.70;;;;;;;;;;5018573;28;20077;-78
2022/01/05 01:09:33;;;;;;;1.58;0.73;;;;;;;;;;5017616;28;20141;-78
2022/01/05 01:12:00;;;;;;;1.05;0.60;;;;;;;;;;5017519;28;20045;-79
2022/01/05 01:14:26;;;;;;;1.75;0.80;;;;;;;;;;5019536;28;20060;-78
2022/01/05 01:16:53;;;;;;;0.70;0.60;;;;;;;;;;5019097;28;20053;-78
2022/01/05 01:19:20;;;;;;;1.33;0.70;;;;;;;;;;5019790;28;20049;-78
2022/01/05 01:21:47;;;;;;;1.05;0.60;;;;;;;;;;5024910;28;20050;-77
2022/01/05 01:24:15;;;;;;;1.67;0.90;;;;;;;;;;5032079;28;20060;-80
2022/01/05 01:26:42;;;;;;;0.50;0.32;;;;;;;;;;5032350;28;20050;-78
2022/01/05 01:29:08;;;;;;;0.68;0.47;;;;;;;;;;5037353;28;20049;-77
2022/01/05 01:31:35;;;;;;;0.40;0.40;;;;;;;;;;5039051;28;20041;-78
2022/01/05 01:34:02;;;;;;;0.43;0.30;;;;;;;;;;5036459;28;20049;-78
2022/01/05 01:36:29;;;;;;;1.13;0.50;;;;;;;;;;5036163;28;20093;-78
2022/01/05 01:38:55;;;;;;;0.90;0.50;;;;;;;;;;5036224;28;20050;-78
2022/01/05 01:41:23;;;;;;;0.75;0.50;;;;;;;;;;5036654;28;20025;-78
2022/01/05 01:43:50;;;;;;;0.93;0.60;;;;;;;;;;5036586;28;20068;-78
2022/01/05 01:46:17;;;;;;;0.73;0.40;;;;;;;;;;5036318;28;20053;-77
2022/01/05 01:48:44;;;;;;;0.70;0.50;;;;;;;;;;5036066;28;20107;-77
2022/01/05 01:51:11;;;;;;;0.85;0.50;;;;;;;;;;5037322;28;20053;-76
2022/01/05 01:53:38;;;;;;;1.08;0.55;;;;;;;;;;5037021;28;20494;-77
2022/01/05 01:56:07;;;;;;;0.77;0.50;;;;;;;;;;5036034;28;20049;-77
2022/01/05 01:58:36;;;;;;;1.33;0.60;;;;;;;;;;5036049;28;20076;-78
2022/01/05 02:01:04;;;;;;;0.47;0.40;;;;;;;;;;5037192;28;20045;-78
2022/01/05 02:03:31;;;;;;;1.00;0.60;;;;;;;;;;5037560;28;20080;-78
2022/01/05 02:05:58;;;;;;;1.35;0.60;;;;;;;;;;5034410;28;20137;-77
2022/01/05 02:08:25;;;;;;;0.77;0.50;;;;;;;;;;5035790;28;20131;-77
2022/01/05 02:10:52;;;;;;;1.02;0.57;;;;;;;;;;5036385;28;20088;-78
2022/01/05 02:13:19;;;;;;;1.13;0.50;;;;;;;;;;5037516;28;20500;-78
2022/01/05 02:15:47;;;;;;;1.35;0.70;;;;;;;;;;5038044;28;20077;-78
2022/01/05 02:18:58;;;;;;;1.80;0.57;;;;;;;;;;5035537;28;20080;-77
2022/01/05 02:21:13;;;;;;;1.10;0.55;;;;;;;;;;5035775;28;20408;-77
2022/01/05 02:23:40;;;;;;;1.10;0.60;;;;;;;;;;5036152;28;20054;-77
2022/01/05 02:26:08;;;;;;;2.03;0.80;;;;;;;;;;5038846;28;20053;-78
2022/01/05 02:28:35;;;;;;;1.40;0.63;;;;;;;;;;5037642;28;20041;-77
2022/01/05 02:31:04;;;;;;;1.27;0.80;;;;;;;;;;5037330;28;20076;-78
2022/01/05 02:33:31;;;;;;;1.65;0.82;;;;;;;;;;5037455;28;20103;-78
2022/01/05 02:35:57;;;;;;;1.33;0.70;;;;;;;;;;5036117;28;20045;-78
2022/01/05 02:38:26;;;;;;;1.35;0.80;;;;;;;;;;5038479;28;20053;-78
2022/01/05 02:40:53;;;;;;;0.70;0.55;;;;;;;;;;5037675;28;20056;-78
2022/01/05 02:43:20;;;;;;;1.30;0.65;;;;;;;;;;5037636;28;20069;-78
2022/01/05 02:45:47;;;;;;;1.02;0.50;;;;;;;;;;5037091;28;20053;-78
2022/01/05 02:48:14;;;;;;;1.00;0.60;;;;;;;;;;5037115;28;20077;-77
2022/01/05 02:50:40;;;;;;;1.70;0.70;;;;;;;;;;5036727;28;20045;-78
2022/01/05 02:53:07;;;;;;;1.20;0.50;;;;;;;;;;5043948;28;20045;-77
2022/01/05 02:55:36;;;;;;;1.23;0.52;;;;;;;;;;5049120;28;20041;-77
2022/01/05 02:58:03;;;;;;;1.35;0.60;;;;;;;;;;5038618;28;20045;-78
2022/01/05 03:00:30;;;;;;;1.05;0.60;;;;;;;;;;5036942;28;20136;-77
2022/01/05 03:02:57;;;;;;;0.77;0.50;;;;;;;;;;5036678;28;20045;-77
2022/01/05 03:05:24;;;;;;;0.50;0.45;;;;;;;;;;5036129;28;20046;-77
2022/01/05 03:07:50;;;;;;;1.13;0.52;;;;;;;;;;5034637;28;20045;-77
2022/01/05 03:10:18;;;;;;;2.25;0.70;;;;;;;;;;5035541;28;20045;-78
2022/01/05 03:12:47;;;;;;;1.33;0.60;;;;;;;;;;5036401;28;20045;-77
2022/01/05 03:15:14;;;;;;;2.42;0.98;;;;;;;;;;5035769;28;20095;-78
2022/01/05 03:17:41;;;;;;;1.45;0.60;;;;;;;;;;5035721;28;20072;-78
2022/01/05 03:20:10;;;;;;;1.13;0.70;;;;;;;;;;5036473;28;20041;-79
2022/01/05 03:22:37;;;;;;;1.27;0.50;;;;;;;;;;5037523;28;20049;-77
2022/01/05 03:25:05;;;;;;;0.75;0.45;;;;;;;;;;5037915;28;20042;-78
2022/01/05 03:27:32;;;;;;;1.48;0.60;;;;;;;;;;5034926;28;20416;-78
2022/01/05 03:30:01;;;;;;;1.17;0.57;;;;;;;;;;5034717;28;20123;-77
2022/01/05 03:32:36;;;;;;;1.08;0.60;;;;;;;;;;5036318;28;20068;-79
2022/01/05 03:35:05;;;;;;;1.23;0.60;;;;;;;;;;5036909;28;20041;-78
2022/01/05 03:37:31;;;;;;;1.77;0.55;;;;;;;;;;5037307;28;20504;-77
2022/01/05 03:39:58;;;;;;;1.55;0.75;;;;;;;;;;5037680;28;20079;-77
2022/01/05 03:42:25;;;;;;;1.15;0.70;;;;;;;;;;5037176;28;20121;-77
2022/01/05 03:44:52;;;;;;;1.00;0.50;;;;;;;;;;5035705;28;20084;-77
2022/01/05 03:47:20;;;;;;;1.30;0.60;;;;;;;;;;5039488;28;20085;-77
2022/01/05 03:49:46;;;;;;;1.33;0.50;;;;;;;;;;5039857;28;20053;-79
2022/01/05 03:52:13;;;;;;;1.10;0.50;;;;;;;;;;5041119;28;20049;-79
2022/01/05 03:54:40;;;;;;;0.68;0.40;;;;;;;;;;5039037;28;20393;-77
2022/01/05 03:57:07;;;;;;;1.13;0.47;;;;;;;;;;5033938;28;20080;-78
2022/01/05 03:59:33;;;;;;;1.85;0.40;;;;;;;;;;5039961;28;20057;-78
2022/01/05 04:02:00;;;;;;;0.50;0.40;;;;;;;;;;5039067;28;20056;-78
2022/01/05 04:04:28;;;;;;;0.50;0.40;;;;;;;;;;5037650;28;20081;-77
2022/01/05 04:06:55;;;;;;;1.17;0.40;;;;;;;;;;5036905;28;20046;-77
2022/01/05 04:09:22;;;;;;;1.00;0.50;;;;;;;;;;5037404;28;20045;-78
2022/01/05 04:11:48;;;;;;;0.80;0.73;;;;;;;;;;5045144;28;20231;-77
2022/01/05 04:14:15;;;;;;;1.27;0.70;;;;;;;;;;5045947;28;20581;-77
2022/01/05 04:16:42;;;;;;;0.50;0.35;;;;;;;;;;5038542;28;20045;-77
2022/01/05 04:19:09;;;;;;;0.45;0.40;;;;;;;;;;5041054;28;20054;-75
2022/01/05 04:21:37;;;;;;;0.63;0.45;;;;;;;;;;5045751;28;20072;-78
2022/01/05 04:24:05;;;;;;;1.50;0.40;;;;;;;;;;5050987;28;20041;-79
2022/01/05 04:26:32;;;;;;;0.57;0.40;;;;;;;;;;5049155;28;20049;-77
2022/01/05 04:28:59;;;;;;;0.40;0.30;;;;;;;;;;5044287;28;20144;-77
2022/01/05 04:31:25;;;;;;;0.50;0.40;;;;;;;;;;5044037;28;20034;-77
2022/01/05 04:33:52;;;;;;;1.33;0.40;;;;;;;;;;5045064;28;20045;-78
2022/01/05 04:36:19;;;;;;;0.43;0.30;;;;;;;;;;5041706;28;20050;-79
2022/01/05 04:38:47;;;;;;;0.80;0.40;;;;;;;;;;5040705;28;20485;-78
2022/01/05 04:41:14;;;;;;;0.50;0.32;;;;;;;;;;5037611;28;20103;-77
2022/01/05 04:43:40;;;;;;;0.80;0.50;;;;;;;;;;5038009;28;20092;-79
2022/01/05 04:46:07;;;;;;;1.30;0.43;;;;;;;;;;5037372;28;20091;-77
2022/01/05 04:48:34;;;;;;;0.45;0.38;;;;;;;;;;5039007;28;20041;-76
2022/01/05 04:51:01;;;;;;;1.65;0.40;;;;;;;;;;5039666;28;20096;-78
2022/01/05 04:53:27;;;;;;;0.40;0.30;;;;;;;;;;5047323;28;20099;-77
2022/01/05 04:55:55;;;;;;;0.75;0.40;;;;;;;;;;5052333;28;20049;-75
2022/01/05 04:58:22;;;;;;;0.88;0.50;;;;;;;;;;5042993;23;20081;-81
2022/01/05 05:00:49;;;;;;;0.40;0.30;;;;;;;;;;4998264;28;20077;-81
2022/01/05 05:03:16;;;;;;;0.40;0.30;;;;;;;;;;4998726;28;20073;-81
2022/01/05 05:05:42;;;;;;;0.47;0.32;;;;;;;;;;4998346;28;20097;-80
2022/01/05 05:08:09;;;;;;;0.32;0.25;;;;;;;;;;4997761;28;20050;-81
2022/01/05 05:10:36;;;;;;;0.25;0.25;;;;;;;;;;4997818;28;20120;-81
2022/01/05 05:13:08;;;;;;;0.47;0.40;;;;;;;;;;4997421;28;20078;-80
2022/01/05 05:15:35;;;;;;;1.23;0.40;;;;;;;;;;4998555;28;20100;-79
2022/01/05 05:18:03;;;;;;;0.28;0.28;;;;;;;;;;4997523;28;20222;-80
2022/01/05 05:20:29;;;;;;;0.85;0.75;;;;;;;;;;4997715;28;20078;-80
2022/01/05 05:22:56;;;;;;;0.50;0.40;;;;;;;;;;4997662;28;20480;-79
2022/01/05 05:25:23;;;;;;;0.63;0.30;;;;;;;;;;4997741;28;20093;-79
2022/01/05 05:27:50;;;;;;;0.85;0.30;;;;;;;;;;4998119;28;20081;-79
2022/01/05 05:30:18;;;;;;;0.80;0.40;;;;;;;;;;4999162;28;20101;-79
2022/01/05 05:32:44;;;;;;;0.30;0.20;;;;;;;;;;4997718;28;20082;-78
2022/01/05 05:35:11;;;;;;;0.40;0.30;;;;;;;;;;5001088;28;20445;-78
2022/01/05 05:37:38;;;;;;;0.30;0.30;;;;;;;;;;5000451;28;20085;-78
2022/01/05 05:40:06;;;;;;;0.50;0.30;;;;;;;;;;5001230;28;20077;-78
2022/01/05 05:42:33;;;;;;;0.20;0.20;;;;;;;;;;5012386;28;20054;-77
2022/01/05 05:45:00;;;;;;;0.40;0.30;;;;;;;;;;5008553;28;20054;-79
2022/01/05 05:47:28;;;;;;;0.40;0.30;;;;;;;;;;4997258;28;20042;-78
2022/01/05 05:49:54;;;;;;;0.30;0.30;;;;;;;;;;4996400;28;20057;-79
2022/01/05 05:52:21;;;;;;;1.20;0.30;;;;;;;;;;4996141;28;20069;-79
2022/01/05 05:54:48;;;;;;;0.50;0.30;;;;;;;;;;4995118;28;20092;-78
2022/01/05 05:57:14;;;;;;;0.80;0.30;;;;;;;;;;4995109;28;20077;-79
2022/01/05 05:59:41;;;;;;;0.60;0.30;;;;;;;;;;4995264;28;20050;-79
2022/01/05 06:02:08;;;;;;;1.45;0.40;;;;;;;;;;4995476;28;20125;-79
2022/01/05 06:04:36;;;;;;;0.75;0.30;;;;;;;;;;4995432;28;20082;-79
2022/01/05 06:07:03;;;;;;;0.30;0.30;;;;;;;;;;4995053;28;20043;-79
2022/01/05 06:09:30;;;;;;;0.50;0.30;;;;;;;;;;4995478;28;20084;-79
2022/01/05 06:11:57;;;;;;;0.50;0.28;;;;;;;;;;4996746;28;20082;-78
2022/01/05 06:14:23;;;;;;;0.57;0.30;;;;;;;;;;4996290;28;20139;-79
2022/01/05 06:16:50;;;;;;;0.20;0.20;;;;;;;;;;4996200;28;20095;-79
2022/01/05 06:19:17;;;;;;;0.38;0.30;;;;;;;;;;4996389;28;20050;-78
2022/01/05 06:21:45;;;;;;;0.82;0.40;;;;;;;;;;4996467;28;20078;-78
2022/01/05 06:24:12;;;;;;;0.47;0.30;;;;;;;;;;4997116;28;20084;-79
2022/01/05 06:26:39;;;;;;;0.63;0.30;;;;;;;;;;4996814;28;20050;-79
2022/01/05 06:29:05;;;;;;;0.65;0.38;;;;;;;;;;4997199;28;20509;-79
2022/01/05 06:31:32;;;;;;;0.22;0.20;;;;;;;;;;4996920;28;20082;-79
2022/01/05 06:33:59;;;;;;;0.30;0.30;;;;;;;;;;4997035;28;20046;-78
2022/01/05 06:36:25;;;;;;;0.20;0.20;;;;;;;;;;4996475;28;20050;-79
2022/01/05 06:38:54;;;;;;;0.60;0.30;;;;;;;;;;4996352;28;20086;-79
2022/01/05 06:41:20;;;;;;;0.50;0.20;;;;;;;;;;4996317;28;20056;-78
2022/01/05 06:43:47;;;;;;;0.32;0.30;;;;;;;;;;4995907;28;20084;-78
2022/01/05 06:46:14;;;;;;;0.77;0.22;;;;;;;;;;4995512;28;20073;-78
2022/01/05 06:48:40;;;;;;;1.27;0.30;;;;;;;;;;4994699;28;20085;-79
2022/01/05 06:51:07;;;;;;;0.57;0.30;;;;;;;;;;4994994;28;20078;-78
2022/01/05 06:53:34;;;;;;;0.50;0.30;;;;;;;;;;4995219;28;20493;-79
2022/01/05 06:56:02;;;;;;;0.73;0.60;;;;;;;;;;4994388;28;20081;-79
2022/01/05 06:58:28;;;;;;;0.47;0.30;;;;;;;;;;4994652;28;20089;-79
2022/01/05 07:00:56;;;;;;;0.70;0.40;;;;;;;;;;4995450;28;20089;-78
2022/01/05 07:03:22;;;;;;;0.30;0.30;;;;;;;;;;4995083;28;20133;-79
2022/01/05 07:05:49;;;;;;;0.20;0.20;;;;;;;;;;4995143;28;20394;-78
2022/01/05 07:08:17;;;;;;;0.88;0.30;;;;;;;;;;4995157;28;20081;-78
2022/01/05 07:10:43;;;;;;;1.17;0.50;;;;;;;;;;4995357;28;20050;-78
2022/01/05 07:13:12;;;;;;;0.77;0.60;;;;;;;;;;4995732;28;20101;-78
2022/01/05 07:15:39;;;;;;;0.50;0.40;;;;;;;;;;4996161;28;20081;-78
2022/01/05 07:18:05;;;;;;;0.30;0.30;;;;;;;;;;4995539;28;20073;-79
2022/01/05 07:20:32;;;;;;;0.52;0.30;;;;;;;;;;4995842;28;20073;-79
2022/01/05 07:22:59;;;;;;;0.47;0.40;;;;;;;;;;4996478;28;20676;-78
2022/01/05 07:25:26;;;;;;;1.52;0.50;;;;;;;;;;4997509;28;20058;-79
2022/01/05 07:27:53;;;;;;;0.57;0.35;;;;;;;;;;4997433;28;20424;-79
2022/01/05 07:30:21;;;;;;;1.77;0.60;;;;;;;;;;4997983;28;20116;-79
2022/01/05 07:32:47;;;;;;;0.90;0.38;;;;;;;;;;4998173;28;20054;-78
2022/01/05 07:35:14;;;;;;;0.55;0.35;;;;;;;;;;4997476;28;20089;-78
2022/01/05 07:37:41;;;;;;;0.77;0.40;;;;;;;;;;5004683;28;20053;-79
2022/01/05 07:40:09;;;;;;;0.47;0.30;;;;;;;;;;4999873;28;20050;-80
2022/01/05 07:42:36;;;;;;;1.05;0.50;;;;;;;;;;4996855;28;20043;-80
2022/01/05 07:45:04;;;;;;;1.17;0.38;;;;;;;;;;4996837;28;20505;-79
2022/01/05 07:47:32;;;;;;;0.85;0.45;;;;;;;;;;4996259;28;20047;-79
2022/01/05 07:49:59;;;;;;;0.40;0.32;;;;;;;;;;4996599;28;20054;-79
2022/01/05 07:52:26;;;;;;;0.43;0.30;;;;;;;;;;4996615;28;20078;-80
2022/01/05 07:54:53;;;;;;;1.15;0.60;;;;;;;;;;4995607;28;20085;-79
2022/01/05 07:57:20;;;;;;;1.20;0.50;;;;;;;;;;4994971;28;20086;-79
2022/01/05 07:59:47;;;;;;;0.40;0.30;;;;;;;;;;4997283;28;20085;-79
2022/01/05 08:02:14;;;;;;;1.08;0.50;;;;;;;;;;4996647;28;20097;-79
2022/01/05 08:04:46;;;;;;;0.82;0.40;;;;;;;;;;4996351;28;20505;-77
2022/01/05 08:07:13;;;;;;;0.85;0.60;;;;;;;;;;4992282;28;20086;-78
2022/01/05 08:09:40;;;;;;;2.35;0.70;;;;;;;;;;4999015;28;20065;-79
2022/01/05 08:12:08;;;;;;;1.83;0.50;;;;;;;;;;4999595;28;20081;-79
2022/01/05 08:14:35;;;;;;;1.02;0.52;;;;;;;;;;5000975;28;20042;-78
2022/01/05 08:17:01;;;;;;;1.20;0.57;;;;;;;;;;5000168;28;20481;-79
2022/01/05 08:19:28;;;;;;;1.40;0.50;;;;;;;;;;4999464;28;20053;-79
2022/01/05 08:21:56;;;;;;;1.08;0.47;;;;;;;;;;4999852;28;20076;-78
2022/01/05 08:24:27;;;;;;;1.67;0.70;;;;;;;;;;4998714;28;20074;-78
2022/01/05 08:26:54;;;;;;;1.05;0.70;;;;;;;;;;4997222;28;20492;-78
2022/01/05 08:29:20;;;;;;;1.10;0.80;;;;;;;;;;4998168;28;20047;-78
2022/01/05 08:31:47;;;;;;;1.17;0.40;;;;;;;;;;4999200;28;20092;-78
2022/01/05 08:34:14;;;;;;;1.40;0.50;;;;;;;;;;5009033;28;20046;-78
2022/01/05 08:36:40;;;;;;;0.85;0.50;;;;;;;;;;5011470;28;20057;-78
2022/01/05 08:39:08;;;;;;;1.30;0.70;;;;;;;;;;5014502;28;20054;-79
2022/01/05 08:41:35;;;;;;;2.28;0.65;;;;;;;;;;5002430;28;20051;-79
2022/01/05 08:44:02;;;;;;;1.02;0.50;;;;;;;;;;4997699;28;20580;-79
2022/01/05 08:46:29;;;;;;;1.52;0.50;;;;;;;;;;4996001;28;20097;-80
2022/01/05 08:48:56;;;;;;;0.93;0.50;;;;;;;;;;4995541;28;20674;-79
2022/01/05 08:51:23;;;;;;;1.05;0.50;;;;;;;;;;4995912;28;20104;-79
2022/01/05 08:53:50;;;;;;;1.08;0.60;;;;;;;;;;4998063;28;20042;-79
2022/01/05 08:56:18;;;;;;;1.00;0.50;;;;;;;;;;4995893;28;20096;-79
2022/01/05 08:58:44;;;;;;;1.90;0.68;;;;;;;;;;4994955;28;20672;-79
2022/01/05 09:01:12;;;;;;;1.42;0.57;;;;;;;;;;4995287;28;20508;-79
2022/01/05 09:03:39;;;;;;;2.63;0.90;;;;;;;;;;4995057;28;20052;-79
2022/01/05 09:06:07;;;;;;;1.70;0.85;;;;;;;;;;4997271;28;20078;-79
2022/01/05 09:08:33;;;;;;;0.85;0.50;;;;;;;;;;4996117;28;20054;-79
2022/01/05 09:11:00;;;;;;;1.58;0.70;;;;;;;;;;4994407;28;20504;-79
2022/01/05 09:13:28;;;;;;;1.08;0.70;;;;;;;;;;4994617;28;20089;-79
2022/01/05 09:15:55;;;;;;;1.10;0.57;;;;;;;;;;4995452;28;20485;-78
2022/01/05 09:18:23;;;;;;;1.50;0.70;;;;;;;;;;4995088;28;20073;-79
2022/01/05 09:20:50;;;;;;;1.63;0.80;;;;;;;;;;4995760;28;20061;-79
2022/01/05 09:23:17;;;;;;;2.05;0.95;;;;;;;;;;4994851;28;20085;-79
2022/01/05 09:25:43;;;;;;;2.65;1.00;;;;;;;;;;4994467;28;20081;-79
2022/01/05 09:28:10;;;;;;;2.03;1.10;;;;;;;;;;4994556;28;20082;-79
2022/01/05 09:30:40;;;;;;;2.00;1.30;;;;;;;;;;4994407;28;20489;-79
2022/01/05 09:33:08;;;;;;;1.80;1.10;;;;;;;;;;4997760;28;20043;-79
2022/01/05 09:35:35;;;;;;;3.25;1.52;;;;;;;;;;4994480;28;20320;-79
2022/01/05 09:38:22;;;;;;;3.38;1.65;;;;;;;;;;4994019;28;20057;-79
2022/01/05 09:43:51;;;;;;;4.18;2.33;;;;;;;;;;4994822;28;20052;-79
2022/01/05 09:46:31;;;;;;;3.75;1.98;;;;;;;;;;4998309;28;20043;-81
2022/01/05 09:49:03;;;;;;;4.00;2.20;;;;;;;;;;4996101;28;20053;-80
2022/01/05 09:51:32;;;;;;;4.55;2.80;;;;;;;;;;4995208;28;20138;-80
2022/01/05 09:54:02;;;;;;;4.43;2.40;;;;;;;;;;4995630;28;20058;-80
2022/01/05 09:56:31;;;;;;;5.18;2.83;;;;;;;;;;4995040;28;20050;-79
2022/01/05 09:59:01;;;;;;;5.07;2.78;;;;;;;;;;4995728;28;20042;-80
2022/01/05 10:01:31;;;;;;;5.20;2.72;;;;;;;;;;4995747;28;20482;-80
2022/01/05 10:03:58;;;;;;;5.40;3.20;;;;;;;;;;4995875;28;20046;-80
2022/01/05 10:06:25;;;;;;;5.53;3.38;;;;;;;;;;4996629;28;20058;-85
2022/01/05 10:08:54;;;;;;;6.50;3.72;;;;;;;;;;4999034;28;20100;-85
2022/01/05 10:11:22;;;;;;;6.22;3.72;;;;;;;;;;4998413;28;20046;-85
2022/01/05 10:13:49;;;;;;;4.85;2.75;;;;;;;;;;4997711;28;20046;-83
2022/01/05 10:16:16;;;;;;;6.57;2.72;;;;;;;;;;4998838;28;20046;-84
2022/01/05 10:18:45;;;;;;;5.95;3.17;;;;;;;;;;4999715;28;20046;-82
2022/01/05 10:21:14;;;;;;;6.97;2.63;;;;;;;;;;4998801;28;20086;-82
2022/01/05 10:23:42;;;;;;;6.22;3.03;;;;;;;;;;4998661;28;20081;-81
2022/01/05 10:26:26;;;;;;;6.75;3.30;;;;;;;;;;4998446;28;20042;-82
2022/01/05 10:28:54;;;;;;;6.47;3.40;;;;;;;;;;4996966;28;20050;-83
2022/01/05 10:31:23;;;;;;;5.70;3.25;;;;;;;;;;4996624;28;20501;-81
2022/01/05 10:33:52;;;;;;;5.10;3.03;;;;;;;;;;4999364;28;20049;-82
2022/01/05 10:36:19;;;;;;;6.68;3.20;;;;;;;;;;4999322;28;20050;-81
2022/01/05 10:38:54;;;;;;;5.72;3.45;;;;;;;;;;4999690;28;20108;-81
2022/01/05 10:41:22;;;;;;;5.20;3.08;;;;;;;;;;4999078;28;20564;-81
2022/01/05 10:44:19;;;;;;;5.82;2.80;;;;;;;;;;4997643;28;20054;-80
2022/01/05 10:46:48;;;;;;;7.43;2.75;;;;;;;;;;4996532;28;20335;-80
2022/01/05 10:49:25;;;;;;;6.45;2.83;;;;;;;;;;4997000;28;20073;-81
2022/01/05 10:51:52;;;;;;;6.65;3.15;;;;;;;;;;4997226;28;20101;-80
2022/01/05 10:54:20;;;;;;;5.05;2.90;;;;;;;;;;4997304;28;20078;-80
2022/01/05 10:56:48;;;;;;;6.20;3.47;;;;;;;;;;4996777;28;20081;-80
2022/01/05 10:59:16;;;;;;;9.25;5.47;;;;;;;;;;4995582;28;20049;-79
2022/01/05 11:01:43;;;;;;;4.97;2.70;;;;;;;;;;5008483;23;20125;-76
2022/01/05 11:04:17;;;;;;;5.50;2.80;;;;;;;;;;5011841;28;20526;-79
2022/01/05 11:07:03;;;;;;;5.47;2.95;;;;;;;;;;5014722;28;20052;-79
2022/01/05 11:09:30;;;;;;;4.10;2.30;;;;;;;;;;5014942;28;20049;-78
2022/01/05 11:11:57;;;;;;;4.75;2.17;;;;;;;;;;5015330;28;20060;-77
2022/01/05 11:14:34;;;;;;;5.07;2.35;;;;;;;;;;5015416;28;20046;-76
2022/01/05 11:17:03;;;;;;;4.18;2.03;;;;;;;;;;5015083;28;20049;-78
2022/01/05 11:19:31;;;;;;;5.20;2.00;;;;;;;;;;5013897;28;20068;-78
2022/01/05 11:22:05;;;;;;;3.83;1.98;;;;;;;;;;5015024;28;20085;-81
2022/01/05 11:24:34;;;;;;;3.42;1.85;;;;;;;;;;5018319;28;20054;-79
2022/01/05 11:27:02;;;;;;;7.32;2.22;;;;;;;;;;5016049;28;20066;-78
2022/01/05 11:29:29;;;;;;;4.40;1.80;;;;;;;;;;5014828;28;20103;-78
2022/01/05 11:31:57;;;;;;;4.22;2.17;;;;;;;;;;5013526;28;20625;-79
2022/01/05 11:34:28;;;;;;;4.25;1.60;;;;;;;;;;5015208;28;20048;-81
2022/01/05 11:37:01;;;;;;;3.08;1.55;;;;;;;;;;5015234;28;20064;-80
2022/01/05 11:39:31;;;;;;;5.45;1.88;;;;;;;;;;5018539;28;20069;-80
2022/01/05 11:42:00;;;;;;;4.88;2.20;;;;;;;;;;5015995;28;20107;-76
2022/01/05 11:44:28;;;;;;;3.22;1.60;;;;;;;;;;5017069;28;20084;-79
2022/01/05 11:46:56;;;;;;;4.13;1.60;;;;;;;;;;5016963;28;20056;-78
2022/01/05 11:49:26;;;;;;;4.50;1.70;;;;;;;;;;5020962;28;20060;-79
2022/01/05 11:51:55;;;;;;;4.60;1.55;;;;;;;;;;5031235;28;20045;-77
2022/01/05 11:54:25;;;;;;;2.90;1.40;;;;;;;;;;5032079;28;20053;-77
2022/01/05 11:56:55;;;;;;;4.60;2.00;;;;;;;;;;5033366;28;20049;-78
2022/01/05 11:59:35;;;;;;;4.35;1.60;;;;;;;;;;5023685;28;20050;-77
2022/01/05 12:02:08;;;;;;;3.60;1.57;;;;;;;;;;5019140;28;20054;-77
2022/01/05 12:05:01;;;;;;;3.78;1.65;;;;;;;;;;5021136;28;20456;-77
2022/01/05 12:07:39;;;;;;;3.17;1.50;;;;;;;;;;5019002;28;20045;-77
2022/01/05 12:10:18;;;;;;;4.20;1.55;;;;;;;;;;5018096;28;20495;-78
2022/01/05 12:13:02;;;;;;;4.13;1.70;;;;;;;;;;5017758;28;20057;-77
2022/01/05 12:15:57;;;;;;;3.85;2.10;;;;;;;;;;5018334;28;20077;-77
2022/01/05 12:18:26;;;;;;;5.78;1.90;;;;;;;;;;5013467;28;20046;-78
2022/01/05 12:20:53;;;;;;;3.38;1.80;;;;;;;;;;5018694;28;20097;-77
2022/01/05 12:23:24;;;;;;;2.97;1.73;;;;;;;;;;5017557;28;20088;-77
2022/01/05 12:26:13;;;;;;;4.72;1.77;;;;;;;;;;5017833;28;20445;-79
2022/01/05 12:28:50;;;;;;;2.63;1.40;;;;;;;;;;5015899;28;20408;-77
2022/01/05 12:31:16;;;;;;;5.22;1.70;;;;;;;;;;5015777;28;20050;-78
2022/01/05 12:33:45;;;;;;;4.05;1.67;;;;;;;;;;5016531;28;20077;-76
2022/01/05 12:36:14;;;;;;;5.20;1.83;;;;;;;;;;5016716;28;20096;-76
2022/01/05 12:38:54;;;;;;;4.35;1.50;;;;;;;;;;5018471;28;20402;-78
2022/01/05 12:41:35;;;;;;;3.00;1.45;;;;;;;;;;5019975;28;20144;-82
2022/01/05 12:44:33;;;;;;;3.67;1.67;;;;;;;;;;5018445;28;20698;-79
2022/01/05 12:47:00;;;;;;;4.43;1.70;;;;;;;;;;5021253;28;20077;-77
2022/01/05 12:49:31;;;;;;;4.20;1.90;;;;;;;;;;5021121;28;20078;-77
2022/01/05 12:52:06;;;;;;;3.78;1.65;;;;;;;;;;5016465;28;20133;-77
2022/01/05 12:54:42;;;;;;;2.72;1.65;;;;;;;;;;5020135;28;20046;-76
2022/01/05 12:57:14;;;;;;;3.78;1.90;;;;;;;;;;5018507;28;20053;-77
2022/01/05 12:59:46;;;;;;;3.95;1.70;;;;;;;;;;5015449;28;20045;-77
2022/01/05 13:02:16;;;;;;;4.32;1.70;;;;;;;;;;5018836;28;20042;-77
2022/01/05 13:04:45;;;;;;;3.15;1.80;;;;;;;;;;5018786;28;20052;-78
2022/01/05 13:07:13;;;;;;;4.30;1.80;;;;;;;;;;5018088;28;20481;-76
2022/01/05 13:09:45;;;;;;;4.78;2.17;;;;;;;;;;5016661;28;20081;-79
2022/01/05 13:12:13;;;;;;;3.40;1.83;;;;;;;;;;5017347;28;20078;-77
2022/01/05 13:14:43;;;;;;;5.88;2.10;;;;;;;;;;5018352;28;20084;-78
2022/01/05 13:17:13;;;;;;;3.50;1.63;;;;;;;;;;5018009;28;20042;-78
2022/01/05 13:19:46;;;;;;;7.05;2.08;;;;;;;;;;5018272;28;20050;-79
2022/01/05 13:22:17;;;;;;;5.90;1.77;;;;;;;;;;5016905;28;20069;-79
2022/01/05 13:25:00;;;;;;;5.20;1.70;;;;;;;;;;5016742;28;20046;-78
2022/01/05 13:27:29;;;;;;;4.32;2.00;;;;;;;;;;5014579;28;20515;-77
2022/01/05 13:29:59;;;;;;;4.40;1.60;;;;;;;;;;5016156;28;20509;-78
2022/01/05 13:32:28;;;;;;;6.38;1.85;;;;;;;;;;5017480;28;20046;-79
2022/01/05 13:35:01;;;;;;;5.55;1.83;;;;;;;;;;5015202;28;20096;-77
2022/01/05 13:37:31;;;;;;;4.15;1.73;;;;;;;;;;5015059;28;20054;-78
2022/01/05 13:40:01;;;;;;;4.77;1.97;;;;;;;;;;5015810;28;20042;-77
2022/01/05 13:42:34;;;;;;;4.65;2.65;;;;;;;;;;5015743;28;20046;-78
2022/01/05 13:45:04;;;;;;;3.47;1.65;;;;;;;;;;5017604;28;20077;-79
2022/01/05 13:47:31;;;;;;;4.63;2.08;;;;;;;;;;5015466;28;20500;-77
2022/01/05 13:50:14;;;;;;;3.30;1.77;;;;;;;;;;5015429;28;20520;-77
2022/01/05 13:52:41;;;;;;;6.03;2.08;;;;;;;;;;5016700;28;20504;-77
2022/01/05 13:55:08;;;;;;;3.88;2.10;;;;;;;;;;5019844;28;20057;-79
2022/01/05 13:57:37;;;;;;;5.85;1.75;;;;;;;;;;5019320;28;20504;-78
2022/01/05 14:00:09;;;;;;;5.95;2.20;;;;;;;;;;5018267;28;20038;-78
2022/01/05 14:02:37;;;;;;;4.43;1.80;;;;;;;;;;5016616;28;20061;-77
2022/01/05 14:05:06;;;;;;;4.95;2.00;;;;;;;;;;5020753;28;20050;-83
2022/01/05 14:07:37;;;;;;;5.45;1.67;;;;;;;;;;5020351;28;20061;-79
2022/01/05 14:10:12;;;;;;;4.45;1.77;;;;;;;;;;5018449;28;20589;-80
2022/01/05 14:12:45;;;;;;;4.60;1.77;;;;;;;;;;5017282;28;20057;-79
2022/01/05 14:15:15;;;;;;;3.65;1.50;;;;;;;;;;5017804;28;20066;-79
2022/01/05 14:18:04;;;;;;;4.50;1.55;;;;;;;;;;5016872;28;20057;-80
2022/01/05 14:20:33;;;;;;;5.60;1.67;;;;;;;;;;5017419;28;20058;-78
2022/01/05 14:23:08;;;;;;;3.60;1.67;;;;;;;;;;5014121;28;20074;-77
2022/01/05 14:25:37;;;;;;;4.07;1.60;;;;;;;;;;5018716;28;20164;-78
2022/01/05 14:28:17;;;;;;;3.33;1.67;;;;;;;;;;5016036;28;20046;-77
2022/01/05 14:31:00;;;;;;;3.22;1.60;;;;;;;;;;5012698;28;20128;-77
2022/01/05 14:33:39;;;;;;;6.35;1.90;;;;;;;;;;5017242;28;20046;-78
2022/01/05 14:36:17;;;;;;;3.63;1.73;;;;;;;;;;5017627;28;20076;-78
2022/01/05 14:38:55;;;;;;;6.13;2.65;;;;;;;;;;5017486;28;20073;-79
2022/01/05 14:41:29;;;;;;;6.75;2.65;;;;;;;;;;5017733;28;20050;-77
2022/01/05 14:44:09;;;;;;;5.78;2.38;;;;;;;;;;5019866;28;20049;-76
2022/01/05 14:46:42;;;;;;;4.28;1.50;;;;;;;;;;5035604;28;20052;-77
2022/01/05 14:49:10;;;;;;;4.15;1.60;;;;;;;;;;5036745;28;20053;-78
2022/01/05 14:51:39;;;;;;;4.75;1.80;;;;;;;;;;5037877;28;20045;-78
2022/01/05 14:54:06;;;;;;;5.07;1.80;;;;;;;;;;5038639;28;20052;-77
2022/01/05 14:56:35;;;;;;;5.25;1.88;;;;;;;;;;5037820;28;20561;-80